createdAt,value
2018-07-26T00:02:27.724Z,21.30
2018-07-26T00:04:55.789Z,21.40
2018-07-26T00:07:23.940Z,21.50
2018-07-26T00:09:52.065Z,21.50
2018-07-26T00:12:21.165Z,21.50
2018-07-26T00:14:49.298Z,21.50
2018-07-26T00:17:17.468Z,21.50
2018-07-26T00:19:45.578Z,21.50
2018-07-26T00:22:13.628Z,21.40
2018-07-26T00:24:41.814Z,21.40
2018-07-26T00:27:09.977Z,21.40
2018-07-26T00:29:38.103Z,21.30
2018-07-26T00:32:06.260Z,21.30
2018-07-26T00:34:34.435Z,21.20
2018-07-26T00:37:02.529Z,21.20
2018-07-26T00:39:30.734Z,21.20
2018-07-26T00:41:58.818Z,21.30
2018-07-26T00:44:27.015Z,21.40
2018-07-26T00:46:55.179Z,21.40
2018-07-26T00:49:23.293Z,21.40
2018-07-26T00:51:51.454Z,21.50
2018-07-26T00:54:19.587Z,21.50
2018-07-26T00:56:47.739Z,21.50
2018-07-26T00:59:15.909Z,21.50
2018-07-26T01:01:44.044Z,21.40
2018-07-26T01:04:12.146Z,21.40
2018-07-26T01:06:40.272Z,21.40
2018-07-26T01:09:10.018Z,21.40
2018-07-26T01:11:38.511Z,21.40
2018-07-26T01:14:06.781Z,21.40
2018-07-26T01:16:35.142Z,21.40
2018-07-26T01:19:03.719Z,21.40
2018-07-26T01:21:31.995Z,21.40
2018-07-26T01:24:00.132Z,21.40
2018-07-26T01:26:28.259Z,21.40
2018-07-26T01:28:56.536Z,21.40
2018-07-26T01:31:24.798Z,21.30
2018-07-26T01:33:53.312Z,21.30
2018-07-26T01:36:21.543Z,21.30
2018-07-26T01:38:51.648Z,21.40
2018-07-26T01:41:19.798Z,21.40
2018-07-26T01:43:59.196Z,21.50
2018-07-26T01:46:27.583Z,21.50
2018-07-26T01:48:55.743Z,21.60
2018-07-26T01:51:23.864Z,21.60
2018-07-26T01:53:51.998Z,21.60
2018-07-26T01:56:20.227Z,21.50
2018-07-26T01:58:48.395Z,21.50
2018-07-26T02:01:16.544Z,21.50
2018-07-26T02:03:44.898Z,21.40
2018-07-26T02:06:13.093Z,21.30
2018-07-26T02:08:41.215Z,21.30
2018-07-26T02:11:09.448Z,21.20
2018-07-26T02:13:37.738Z,21.20
2018-07-26T02:16:05.821Z,21.10
2018-07-26T02:18:34.070Z,21.10
2018-07-26T02:21:02.168Z,21.00
2018-07-26T02:23:30.284Z,21.00
2018-07-26T02:25:58.442Z,20.90
2018-07-26T02:28:26.533Z,20.80
2018-07-26T02:30:54.687Z,20.80
2018-07-26T02:33:22.856Z,20.70
2018-07-26T02:35:50.970Z,20.70
2018-07-26T02:38:19.091Z,20.60
2018-07-26T02:40:47.193Z,20.60
2018-07-26T02:43:15.377Z,20.60
2018-07-26T02:45:43.558Z,20.50
2018-07-26T02:48:11.754Z,20.50
2018-07-26T02:50:39.936Z,20.40
2018-07-26T02:53:08.141Z,20.40
2018-07-26T02:55:36.347Z,20.40
2018-07-26T02:58:04.593Z,20.40
2018-07-26T03:00:32.835Z,20.40
2018-07-26T03:03:00.985Z,20.40
2018-07-26T03:05:29.147Z,20.40
2018-07-26T03:07:57.384Z,20.30
2018-07-26T03:10:25.574Z,20.20
2018-07-26T03:12:53.748Z,20.20
2018-07-26T03:15:22.013Z,20.30
2018-07-26T03:17:50.260Z,20.30
2018-07-26T03:20:18.415Z,20.20
2018-07-26T03:22:46.590Z,20.20
2018-07-26T03:25:14.792Z,20.20
2018-07-26T03:27:42.970Z,20.10
2018-07-26T03:30:11.051Z,20.10
2018-07-26T03:32:39.279Z,20.00
2018-07-26T03:35:07.421Z,20.10
2018-07-26T03:37:35.574Z,20.10
2018-07-26T03:40:04.143Z,20.00
2018-07-26T03:42:32.334Z,20.10
2018-07-26T03:45:00.408Z,20.10
2018-07-26T03:47:28.638Z,20.10
2018-07-26T03:49:56.972Z,20.10
2018-07-26T03:52:25.316Z,20.00
2018-07-26T03:54:53.625Z,19.90
2018-07-26T03:57:22.208Z,19.90
2018-07-26T03:59:50.556Z,19.90
2018-07-26T04:02:19.008Z,19.90
2018-07-26T04:04:47.472Z,20.00
2018-07-26T04:07:15.687Z,20.10
2018-07-26T04:09:46.429Z,20.10
2018-07-26T04:12:14.815Z,20.40
2018-07-26T04:14:43.271Z,20.70
2018-07-26T04:17:11.638Z,20.80
2018-07-26T04:19:39.786Z,21.00
2018-07-26T04:22:08.072Z,21.20
2018-07-26T04:24:36.260Z,21.30
2018-07-26T04:27:04.545Z,21.40
2018-07-26T04:29:32.706Z,21.40
2018-07-26T04:32:01.062Z,21.50
2018-07-26T04:34:29.086Z,21.50
2018-07-26T04:36:57.396Z,21.50
2018-07-26T04:39:25.851Z,21.50
2018-07-26T04:41:54.225Z,21.40
2018-07-26T04:44:22.620Z,21.40
2018-07-26T04:46:50.931Z,21.40
2018-07-26T04:49:19.270Z,21.50
2018-07-26T04:51:47.603Z,21.60
2018-07-26T04:54:16.098Z,21.60
2018-07-26T04:56:44.418Z,21.60
2018-07-26T04:59:12.719Z,21.70
2018-07-26T05:01:41.081Z,21.80
2018-07-26T05:04:09.463Z,21.80
2018-07-26T05:06:37.830Z,21.90
2018-07-26T05:09:08.396Z,22.00
2018-07-26T05:11:37.726Z,22.10
2018-07-26T05:14:05.924Z,22.20
2018-07-26T05:16:34.231Z,22.20
2018-07-26T05:19:02.616Z,22.30
2018-07-26T05:22:34.434Z,22.40
2018-07-26T05:25:02.995Z,22.50
2018-07-26T05:27:31.453Z,22.70
2018-07-26T05:29:59.622Z,22.70
2018-07-26T05:32:27.937Z,22.80
2018-07-26T05:34:56.609Z,22.90
2018-07-26T05:37:25.038Z,22.90
2018-07-26T05:39:53.497Z,23.20
2018-07-26T05:42:23.854Z,23.10
2018-07-26T05:44:52.218Z,23.10
2018-07-26T05:47:20.835Z,23.10
2018-07-26T05:49:49.333Z,23.20
2018-07-26T05:52:17.767Z,23.40
2018-07-26T05:54:47.161Z,23.50
2018-07-26T05:57:15.884Z,23.30
2018-07-26T05:59:44.869Z,23.50
2018-07-26T06:02:13.982Z,23.60
2018-07-26T06:04:43.808Z,23.70
2018-07-26T06:07:12.194Z,23.70
2018-07-26T06:09:41.886Z,23.70
2018-07-26T06:12:10.423Z,23.80
2018-07-26T06:14:38.742Z,23.80
2018-07-26T06:17:07.270Z,23.80
2018-07-26T06:19:35.798Z,24.00
2018-07-26T06:22:04.368Z,24.10
2018-07-26T06:24:37.841Z,24.30
2018-07-26T06:27:06.440Z,24.00
2018-07-26T06:29:34.883Z,24.30
2018-07-26T06:32:03.326Z,24.40
2018-07-26T06:34:31.751Z,24.50
2018-07-26T06:37:00.121Z,24.40
2018-07-26T06:39:28.579Z,24.50
2018-07-26T06:41:57.026Z,24.70
2018-07-26T06:44:26.459Z,24.80
2018-07-26T06:46:54.843Z,24.90
2018-07-26T06:49:23.367Z,25.20
2018-07-26T06:51:51.930Z,25.10
2018-07-26T06:54:20.474Z,24.80
2018-07-26T06:56:48.890Z,24.80
2018-07-26T06:59:17.328Z,24.80
2018-07-26T07:01:45.725Z,25.00
2018-07-26T07:04:14.219Z,24.90
2018-07-26T07:06:46.290Z,25.10
2018-07-26T07:09:14.812Z,25.10
2018-07-26T07:11:43.303Z,25.20
2018-07-26T07:14:11.830Z,25.50
2018-07-26T07:16:40.344Z,25.60
2018-07-26T07:19:09.851Z,25.60
2018-07-26T07:21:38.247Z,25.70
2018-07-26T07:24:06.851Z,26.00
2018-07-26T07:26:35.048Z,26.20
2018-07-26T07:29:06.536Z,26.20
2018-07-26T07:31:35.470Z,26.10
2018-07-26T07:34:04.051Z,26.40
2018-07-26T07:36:32.839Z,26.70
2018-07-26T07:39:01.714Z,26.80
2018-07-26T07:41:30.532Z,26.70
2018-07-26T07:43:59.288Z,26.90
2018-07-26T07:46:28.708Z,27.40
2018-07-26T07:48:57.671Z,27.40
2018-07-26T07:51:26.723Z,27.80
2018-07-26T07:53:57.862Z,27.70
2018-07-26T07:56:26.839Z,28.00
2018-07-26T07:58:56.901Z,27.90
2018-07-26T08:01:26.681Z,27.90
2018-07-26T08:03:57.408Z,27.90
2018-07-26T08:06:29.745Z,28.30
2018-07-26T08:09:02.005Z,28.10
2018-07-26T08:11:34.673Z,28.10
2018-07-26T08:14:08.566Z,28.80
2018-07-26T08:16:41.170Z,28.90
2018-07-26T08:19:12.644Z,29.20
2018-07-26T08:21:43.280Z,29.80
2018-07-26T08:24:15.186Z,28.70
2018-07-26T08:26:46.364Z,29.00
2018-07-26T08:29:18.833Z,29.50
2018-07-26T08:31:50.920Z,29.80
2018-07-26T08:34:23.722Z,30.30
2018-07-26T08:36:56.369Z,30.30
2018-07-26T08:39:28.837Z,29.90
2018-07-26T08:42:01.342Z,29.70
2018-07-26T08:44:34.166Z,30.00
2018-07-26T08:47:03.591Z,30.10
2018-07-26T08:49:35.379Z,30.30
2018-07-26T08:52:07.114Z,31.10
2018-07-26T08:54:44.004Z,31.80
2018-07-26T08:57:18.570Z,31.60
2018-07-26T08:59:49.437Z,31.20
2018-07-26T09:02:22.914Z,31.50
2018-07-26T09:04:56.075Z,32.00
2018-07-26T09:07:27.666Z,31.90
2018-07-26T09:10:00.473Z,32.00
2018-07-26T09:12:31.475Z,32.20
2018-07-26T09:15:05.268Z,32.10
2018-07-26T09:17:37.686Z,32.30
2018-07-26T09:20:10.288Z,31.70
2018-07-26T09:22:41.537Z,32.00
2018-07-26T09:25:12.102Z,32.10
2018-07-26T09:27:41.974Z,32.40
2018-07-26T09:30:11.876Z,32.20
2018-07-26T09:32:42.614Z,32.50
2018-07-26T09:35:11.672Z,32.50
2018-07-26T09:37:42.723Z,32.50
2018-07-26T09:40:12.596Z,32.40
2018-07-26T09:42:49.748Z,33.00
2018-07-26T09:45:20.166Z,33.20
2018-07-26T09:47:48.905Z,32.80
2018-07-26T09:50:17.859Z,32.60
2018-07-26T09:52:46.560Z,32.20
2018-07-26T10:01:03.398Z,32.80
2018-07-26T10:03:33.632Z,33.00
2018-07-26T10:06:03.706Z,33.10
2018-07-26T10:08:33.290Z,32.90
2018-07-26T10:11:01.986Z,33.60
2018-07-26T10:13:34.112Z,34.30
2018-07-26T10:16:06.339Z,34.00
2018-07-26T10:18:44.337Z,34.00
2018-07-26T10:21:15.186Z,34.60
2018-07-26T10:24:00.712Z,33.90
2018-07-26T10:29:10.333Z,33.70
2018-07-26T10:31:38.659Z,34.00
2018-07-26T10:34:06.986Z,33.60
2018-07-26T10:36:35.298Z,33.70
2018-07-26T10:39:05.631Z,33.80
2018-07-26T10:41:33.915Z,34.10
2018-07-26T10:44:02.226Z,34.70
2018-07-26T10:46:30.589Z,35.40
2018-07-26T10:48:58.876Z,36.00
2018-07-26T10:51:27.161Z,36.10
2018-07-26T10:53:55.485Z,35.80
2018-07-26T10:56:23.781Z,35.30
2018-07-26T10:58:52.044Z,35.60
2018-07-26T11:01:20.363Z,35.80
2018-07-26T11:03:48.718Z,35.80
2018-07-26T11:06:17.006Z,35.40
2018-07-26T11:08:45.259Z,35.80
2018-07-26T11:11:20.527Z,35.80
2018-07-26T11:13:50.005Z,35.60
2018-07-26T11:16:18.286Z,35.00
2018-07-26T11:18:46.572Z,35.20
2018-07-26T11:21:14.903Z,35.40
2018-07-26T11:23:43.237Z,35.40
2018-07-26T11:26:11.514Z,35.30
2018-07-26T11:28:39.837Z,36.00
2018-07-26T11:31:08.189Z,35.50
2018-07-26T11:33:36.497Z,35.50
2018-07-26T11:36:04.858Z,35.90
2018-07-26T11:38:33.180Z,36.70
2018-07-26T11:41:01.467Z,36.70
2018-07-26T11:43:29.817Z,36.80
2018-07-26T11:45:58.091Z,36.20
2018-07-26T11:48:26.356Z,36.30
2018-07-26T11:50:54.629Z,36.30
2018-07-26T11:53:22.969Z,36.50
2018-07-26T11:55:53.790Z,37.10
2018-07-26T11:58:22.059Z,37.80
2018-07-26T12:00:50.402Z,37.60
2018-07-26T12:03:18.743Z,37.30
2018-07-26T12:05:47.085Z,37.50
2018-07-26T12:08:15.408Z,37.20
2018-07-26T12:10:43.770Z,37.70
2018-07-26T12:13:12.078Z,38.20
2018-07-26T12:15:40.374Z,37.20
2018-07-26T12:18:08.713Z,37.20
2018-07-26T12:20:38.023Z,37.70
2018-07-26T12:23:06.505Z,38.50
2018-07-26T12:25:34.843Z,38.90
2018-07-26T12:28:03.228Z,37.60
2018-07-26T12:30:31.616Z,38.20
2018-07-26T12:32:59.948Z,38.70
2018-07-26T12:35:28.317Z,39.20
2018-07-26T12:37:56.610Z,39.40
2018-07-26T12:40:24.944Z,39.20
2018-07-26T12:42:53.277Z,39.40
2018-07-26T12:45:21.570Z,39.80
2018-07-26T12:47:49.910Z,40.30
2018-07-26T12:50:18.201Z,40.30
2018-07-26T12:52:46.492Z,39.60
2018-07-26T12:55:14.887Z,38.70
2018-07-26T12:57:46.889Z,38.60
2018-07-26T13:00:16.192Z,37.90
2018-07-26T13:02:44.584Z,37.60
2018-07-26T13:05:12.894Z,37.30
2018-07-26T13:07:41.221Z,39.00
2018-07-26T13:10:09.558Z,39.40
2018-07-26T13:12:37.817Z,38.90
2018-07-26T13:15:06.452Z,38.50
2018-07-26T13:17:34.728Z,38.10
2018-07-26T13:20:03.135Z,38.90
2018-07-26T13:22:31.587Z,39.50
2018-07-26T13:25:00.437Z,39.70
2018-07-26T13:27:28.970Z,39.10
2018-07-26T13:29:57.441Z,39.90
2018-07-26T13:32:25.830Z,40.80
2018-07-26T13:34:54.173Z,40.80
2018-07-26T13:37:22.490Z,40.90
2018-07-26T13:40:53.342Z,41.00
2018-07-26T13:43:21.661Z,40.00
2018-07-26T13:45:49.973Z,40.60
2018-07-26T13:48:18.275Z,40.00
2018-07-26T13:50:46.609Z,39.80
2018-07-26T13:53:14.892Z,38.80
2018-07-26T13:55:43.293Z,38.90
2018-07-26T13:58:14.115Z,38.80
2018-07-26T14:00:42.456Z,38.70
2018-07-26T14:03:10.822Z,39.40
2018-07-26T14:05:39.116Z,40.50
2018-07-26T14:08:07.393Z,41.50
2018-07-26T14:10:35.711Z,41.20
2018-07-26T14:13:04.034Z,41.40
2018-07-26T14:15:32.408Z,41.90
2018-07-26T14:18:00.674Z,42.20
2018-07-26T14:20:28.969Z,42.10
2018-07-26T14:22:57.307Z,41.80
2018-07-26T14:25:25.686Z,41.30
2018-07-26T14:27:54.005Z,41.20
2018-07-26T14:30:22.413Z,41.00
2018-07-26T14:32:50.749Z,40.30
2018-07-26T14:35:19.067Z,39.10
2018-07-26T14:37:47.422Z,39.10
2018-07-26T14:40:15.771Z,39.50
2018-07-26T14:42:44.069Z,40.50
2018-07-26T14:45:12.374Z,40.70
2018-07-26T14:47:40.690Z,39.60
2018-07-26T14:50:09.098Z,39.40
2018-07-26T14:52:37.421Z,39.70
2018-07-26T14:55:05.707Z,39.50
2018-07-26T14:57:34.008Z,40.00
2018-07-26T15:00:02.417Z,40.10
2018-07-26T15:02:30.699Z,40.20
2018-07-26T15:04:59.049Z,40.30
2018-07-26T15:07:28.364Z,40.00
2018-07-26T15:09:56.679Z,40.80
2018-07-26T15:12:24.927Z,40.80
2018-07-26T15:14:53.236Z,40.70
2018-07-26T15:17:21.789Z,40.20
2018-07-26T15:19:50.165Z,39.90
2018-07-26T15:22:18.499Z,39.20
2018-07-26T15:24:48.045Z,38.50
2018-07-26T15:27:16.432Z,38.10
2018-07-26T15:29:44.756Z,37.80
2018-07-26T15:32:13.130Z,37.50
2018-07-26T15:34:41.454Z,37.50
2018-07-26T15:37:12.678Z,37.60
2018-07-26T15:39:40.973Z,37.80
2018-07-26T15:42:09.435Z,38.20
2018-07-26T15:44:37.784Z,38.70
2018-07-26T15:47:06.184Z,39.70
2018-07-26T15:49:34.494Z,40.60
2018-07-26T15:52:02.802Z,41.20
2018-07-26T15:54:32.174Z,41.40
2018-07-26T15:57:00.590Z,41.30
2018-07-26T15:59:30.076Z,41.40
2018-07-26T16:01:58.517Z,41.80
2018-07-26T16:04:27.881Z,41.80
2018-07-26T16:06:56.178Z,40.70
2018-07-26T16:09:24.538Z,39.20
2018-07-26T16:11:53.992Z,38.60
2018-07-26T16:14:22.322Z,37.70
2018-07-26T16:16:50.612Z,38.50
2018-07-26T16:19:18.888Z,39.30
2018-07-26T16:21:47.206Z,39.10
2018-07-26T16:24:15.476Z,39.10
2018-07-26T16:26:43.791Z,38.40
2018-07-26T16:29:12.080Z,37.10
2018-07-26T16:31:40.375Z,36.20
2018-07-26T16:34:08.738Z,36.30
2018-07-26T16:36:38.043Z,36.30
2018-07-26T16:39:08.535Z,36.80
2018-07-26T16:41:36.870Z,37.50
2018-07-26T16:44:05.668Z,38.20
2018-07-26T16:46:34.101Z,38.20
2018-07-26T16:49:02.422Z,37.90
2018-07-26T16:51:30.805Z,37.70
2018-07-26T16:54:01.660Z,37.20
2018-07-26T16:56:29.976Z,36.70
2018-07-26T16:58:58.380Z,36.20
2018-07-26T17:01:26.662Z,35.40
2018-07-26T17:03:55.199Z,35.00
2018-07-26T17:06:23.521Z,34.90
2018-07-26T17:08:58.056Z,34.70
2018-07-26T17:11:26.452Z,34.70
2018-07-26T17:13:54.819Z,34.60
2018-07-26T17:16:23.135Z,34.50
2018-07-26T17:18:51.588Z,34.20
2018-07-26T17:21:19.819Z,34.20
2018-07-26T17:23:48.131Z,34.10
2018-07-26T17:26:16.508Z,34.00
2018-07-26T17:28:44.853Z,34.00
2018-07-26T17:31:13.179Z,34.00
2018-07-26T17:33:41.230Z,33.90
2018-07-26T17:36:09.285Z,33.70
2018-07-26T17:38:37.399Z,33.50
2018-07-26T17:41:05.416Z,33.40
2018-07-26T17:43:33.401Z,33.30
2018-07-26T17:46:01.407Z,33.20
2018-07-26T17:48:29.504Z,33.20
2018-07-26T17:50:57.514Z,33.10
2018-07-26T17:53:25.457Z,33.10
2018-07-26T17:55:53.410Z,33.00
2018-07-26T17:58:21.362Z,33.00
2018-07-26T18:00:49.336Z,32.90
2018-07-26T18:03:17.366Z,32.90
2018-07-26T18:05:45.275Z,32.80
2018-07-26T18:08:13.229Z,32.70
2018-07-26T18:10:41.296Z,32.50
2018-07-26T18:13:09.523Z,32.30
2018-07-26T18:15:37.529Z,32.20
2018-07-26T18:18:05.469Z,32.20
2018-07-26T18:20:33.461Z,32.10
2018-07-26T18:23:01.368Z,32.00
2018-07-26T18:25:29.402Z,32.00
2018-07-26T18:27:57.337Z,31.80
2018-07-26T18:30:25.320Z,31.60
2018-07-26T18:32:53.255Z,31.40
2018-07-26T18:35:21.325Z,31.30
2018-07-26T18:37:49.237Z,31.10
2018-07-26T18:40:17.169Z,30.90
2018-07-26T18:42:44.997Z,30.90
2018-07-26T18:45:12.913Z,30.80
2018-07-26T18:47:40.845Z,30.60
2018-07-26T18:50:09.996Z,30.50
2018-07-26T18:52:38.021Z,30.40
2018-07-26T18:58:23.432Z,30.20
2018-07-26T19:00:51.654Z,30.10
2018-07-26T19:03:19.586Z,30.10
2018-07-26T19:05:47.567Z,29.90
2018-07-26T19:08:15.607Z,29.80
2018-07-26T19:10:44.644Z,29.50
2018-07-26T19:13:12.659Z,29.40
2018-07-26T19:15:41.603Z,29.20
2018-07-26T19:18:09.821Z,29.10
2018-07-26T19:20:39.926Z,29.20
2018-07-26T19:23:07.758Z,29.00
2018-07-26T19:25:35.772Z,28.80
2018-07-26T19:28:03.772Z,28.70
2018-07-26T19:30:31.727Z,28.50
2018-07-26T19:32:59.690Z,28.30
2018-07-26T19:35:27.752Z,28.10
2018-07-26T19:37:55.723Z,27.90
2018-07-26T19:40:23.733Z,27.90
2018-07-26T19:42:51.680Z,27.70
2018-07-26T19:45:23.664Z,27.80
2018-07-26T19:47:51.590Z,27.90
2018-07-26T19:50:19.729Z,27.90
2018-07-26T19:52:47.755Z,27.80
2018-07-26T19:55:15.802Z,27.80
2018-07-26T19:57:43.772Z,27.60
2018-07-26T20:00:15.433Z,27.60
2018-07-26T20:02:43.193Z,27.50
2018-07-26T20:05:11.081Z,27.30
2018-07-26T20:07:39.215Z,27.10
2018-07-26T20:10:09.025Z,26.90
2018-07-26T20:12:36.811Z,26.80
2018-07-26T20:15:05.857Z,26.60
2018-07-26T20:17:33.656Z,26.40
2018-07-26T20:20:02.752Z,26.30
2018-07-26T20:22:30.519Z,26.20
2018-07-26T20:24:58.375Z,26.20
2018-07-26T20:27:26.209Z,26.10
2018-07-26T20:29:53.975Z,26.10
2018-07-26T20:32:22.894Z,26.10
2018-07-26T20:34:50.722Z,26.10
2018-07-26T20:37:18.567Z,26.00
2018-07-26T20:39:46.323Z,25.90
2018-07-26T20:42:14.248Z,25.80
2018-07-26T20:44:42.016Z,25.70
2018-07-26T20:47:09.909Z,25.70
2018-07-26T20:49:37.708Z,25.60
2018-07-26T20:52:05.630Z,25.80
2018-07-26T20:54:33.408Z,26.00
2018-07-26T20:57:01.158Z,26.00
2018-07-26T20:59:28.923Z,26.30
2018-07-26T21:01:56.806Z,26.20
2018-07-26T21:04:24.579Z,26.10
2018-07-26T21:06:52.414Z,26.10
2018-07-26T21:09:20.204Z,25.90
2018-07-26T21:11:50.001Z,25.80
2018-07-26T21:14:17.757Z,25.60
2018-07-26T21:16:45.505Z,25.40
2018-07-26T21:19:13.498Z,25.40
2018-07-26T21:21:41.361Z,25.20
2018-07-26T21:24:09.140Z,25.10
2018-07-26T21:26:36.917Z,24.90
2018-07-26T21:29:04.810Z,24.80
2018-07-26T21:31:32.575Z,24.80
2018-07-26T21:34:00.391Z,24.70
2018-07-26T21:36:28.152Z,24.50
2018-07-26T21:38:55.966Z,24.30
2018-07-26T21:41:23.762Z,24.20
2018-07-26T21:43:51.524Z,24.10
2018-07-26T21:46:19.412Z,23.90
2018-07-26T21:48:47.156Z,23.80
2018-07-26T21:51:14.872Z,23.70
2018-07-26T21:53:42.637Z,23.70
2018-07-26T21:56:10.436Z,23.70
2018-07-26T21:58:38.187Z,23.80
2018-07-26T22:01:06.028Z,23.80
2018-07-26T22:03:33.824Z,23.80
2018-07-26T22:06:01.622Z,23.80
2018-07-26T22:08:29.405Z,23.70
2018-07-26T22:10:57.183Z,23.60
2018-07-26T22:13:24.924Z,23.40
2018-07-26T22:15:52.826Z,23.30
2018-07-26T22:18:21.155Z,23.20
2018-07-26T22:20:48.982Z,23.20
2018-07-26T22:23:16.870Z,23.20
2018-07-26T22:25:47.503Z,23.20
2018-07-26T22:28:15.654Z,23.20
2018-07-26T22:30:43.846Z,23.00
2018-07-26T22:33:11.781Z,22.90
2018-07-26T22:35:40.167Z,22.90
2018-07-26T22:38:07.895Z,22.90
2018-07-26T22:40:35.654Z,23.00
2018-07-26T22:43:03.590Z,23.20
2018-07-26T22:45:31.446Z,23.30
2018-07-26T22:47:59.151Z,23.40
2018-07-26T22:50:26.885Z,23.30
2018-07-26T22:52:54.652Z,23.10
2018-07-26T22:55:22.385Z,23.00
2018-07-26T22:57:50.143Z,22.90
2018-07-26T23:00:17.912Z,22.70
2018-07-26T23:02:45.645Z,22.60
2018-07-26T23:05:14.485Z,22.50
2018-07-26T23:07:42.238Z,22.40
2018-07-26T23:10:10.373Z,22.40
2018-07-26T23:12:38.519Z,22.20
2018-07-26T23:15:07.475Z,22.10
2018-07-26T23:17:35.363Z,22.00
2018-07-26T23:20:03.410Z,21.90
2018-07-26T23:22:31.130Z,21.80
2018-07-26T23:24:58.843Z,21.80
2018-07-26T23:27:28.586Z,21.80
2018-07-26T23:29:56.364Z,21.80
2018-07-26T23:32:24.100Z,21.90
2018-07-26T23:34:51.872Z,22.00
2018-07-26T23:37:20.637Z,22.10
2018-07-26T23:39:48.315Z,22.00
2018-07-26T23:42:16.072Z,21.90
2018-07-26T23:44:43.802Z,21.80
2018-07-26T23:47:12.555Z,21.70
2018-07-26T23:49:40.255Z,21.80
2018-07-26T23:52:08.051Z,21.80
2018-07-26T23:54:35.769Z,21.80
2018-07-26T23:57:03.534Z,21.70
2018-07-26T23:59:31.245Z,21.70
